Flight Track Log - Related Links

Times and Time Zones

All times are in EDT time to prevent confusion due to time zone crossing. See the OPT452 flight status page for this flight to view local times or setup timezone preferences in your user account.

Time Position Orientation Groundspeed Altitude Reporting Facility
EDT Latitude Longitude Course Direction KTS MPH feet Rate Location/Type
Wed 02:54:33 PM 27.9833 -82.5333 358° North 157 181 600  Level Tampa TRACON
Wed 02:56:43 PM 28.1078 -82.5372 358° North 235 270 5,800 2,400 Climbing Jacksonville Center
Wed 02:57:43 PM 28.1683 -82.5369 360° North 230 265 8,200 2,250 Climbing Jacksonville Center
Wed 02:58:43 PM 28.2350 -82.5322 North 230 265 10,300 2,100 Climbing Jacksonville Center
Wed 02:59:43 PM 28.2997 -82.5294 North 230 265 12,400 1,850 Climbing Jacksonville Center
Wed 03:00:43 PM 28.3664 -82.5197 North 235 270 14,000 800 Climbing Jacksonville Center
Wed 03:01:43 PM 28.4414 -82.5150 North 242 278 14,000  Level Jacksonville Center
Wed 03:02:43 PM 28.5125 -82.5122 North 253 291 14,000  Level Jacksonville Center
Wed 03:03:43 PM 28.5814 -82.5050 North 253 291 14,000  Level Jacksonville Center
Wed 03:04:43 PM 28.6481 -82.4903 11° North 241 277 14,000  Level Jacksonville Center
Wed 03:05:43 PM 28.7189 -82.4758 10° North 236 272 14,000  Level Jacksonville Center
Wed 03:06:43 PM 28.7817 -82.4639 North 236 272 14,000  Level Jacksonville Center
Wed 03:07:43 PM 28.8483 -82.4469 13° North 236 272 14,000  Level Jacksonville Center
Wed 03:08:43 PM 28.9150 -82.4347 North 236 272 14,000  Level Jacksonville Center
Wed 03:09:43 PM 28.9817 -82.4203 11° North 236 272 14,000  Level Jacksonville Center
Wed 03:10:43 PM 29.0444 -82.4056 12° North 236 272 14,000  Level Jacksonville Center
Wed 03:11:43 PM 29.1111 -82.3933 North 236 272 14,000  Level Jacksonville Center
Wed 03:12:43 PM 29.1758 -82.3789 11° North 236 272 14,000  Level Jacksonville Center
Wed 03:13:43 PM 29.2403 -82.3667 North 236 272 14,000  Level Jacksonville Center
Wed 03:14:43 PM 29.3050 -82.3519 11° North 236 272 14,000  Level Jacksonville Center
Wed 03:15:19 PM 29.3425 -82.3494 North 234 269 14,000  Level Jacksonville Center
Wed 03:15:43 PM 29.3697 -82.3397 17° North 236 272 14,000  Level Jacksonville Center
Wed 03:16:02 PM 29.3842 -82.3397 360° North 232 267 14,000  Level Jacksonville Center
Wed 03:16:43 PM 29.4322 -82.3250 15° North 236 272 14,000  Level Jacksonville Center
Wed 03:17:43 PM 29.4969 -82.3128 North 236 272 14,000  Level Jacksonville Center
Wed 03:17:58 PM 29.5117 -82.3150 353° North 233 268 14,000  Level Jacksonville Center
Wed 03:18:43 PM 29.5594 -82.2981 17° North 236 272 14,000  Level Jacksonville Center
Wed 03:18:59 PM 29.5761 -82.3003 353° North 233 268 14,000  Level Jacksonville Center
Wed 03:19:43 PM 29.6242 -82.2858 15° North 236 272 14,000  Level Jacksonville Center
Wed 03:19:59 PM 29.6428 -82.2833 North 232 267 14,000 -800 Level Jacksonville Center
Wed 03:20:43 PM 29.6867 -82.2639 21° North 236 272 13,200 -1,161 Descending Jacksonville Center
Wed 03:21:01 PM 29.7033 -82.2542 27° Northeast 233 268 12,800 -1,500 Descending Jacksonville Center
Wed 03:21:43 PM 29.7408 -82.2275 32° Northeast 231 266 11,700 -1,475 Descending Jacksonville Center
Wed 03:22:02 PM 29.7594 -82.2178 24° Northeast 231 266 11,300 -1,200 Descending Jacksonville Center
Wed 03:22:43 PM 29.7928 -82.1986 27° Northeast 226 260 10,500 -1,500 Descending Jacksonville Center
Wed 03:23:02 PM 29.8114 -82.1839 34° Northeast 226 260 9,800 -1,500 Descending Jacksonville Center
Wed 03:23:43 PM 29.8447 -82.1669 24° Northeast 219 252 9,000 -1,377 Descending Jacksonville Center
Wed 03:24:03 PM 29.8656 -82.1550 26° Northeast 205 236 8,400 -1,400 Descending Jacksonville Center
Wed 03:24:43 PM 29.8989 -82.1403 21° North 214 246 7,600 -1,574 Descending Jacksonville Center
Wed 03:25:04 PM 29.9219 -82.1328 16° North 199 229 6,800 -1,636 Descending Jacksonville Center
Wed 03:26:11 PM 29.9761 -82.1086 21° North 186 214 5,200 -1,406 Descending Jacksonville Center
Wed 03:27:12 PM 30.0197 -82.0842 26° Northeast 173 199 3,800 -1,023 Descending Jacksonville Center
Wed 03:28:20 PM 30.0694 -82.0453 34° Northeast 180 207 3,000 -422 Descending Jacksonville Center
Wed 03:29:20 PM 30.1131 -82.0136 32° Northeast 185 213 2,900 -496 Descending Jacksonville Center
Wed 03:30:21 PM 30.1506 -81.9797 38° Northeast 167 192 2,000 -443 Descending Jacksonville Center
Wed 03:31:22 PM 30.1878 -81.9433 40° Northeast 189 217 2,000  Level Jacksonville Center
Wed 03:32:17 PM 30.2231 -81.9117 38° Northeast 174 200 2,000 -443 Level Jacksonville Center
Wed 03:33:24 PM 30.2542 -81.8658 52° Northeast 135 155 1,100 -787 Descending Jacksonville Center
Wed 03:34:19 PM 30.2683 -81.8342 63° Northeast 109 125 400 -764 Descending Jacksonville Center

Login

Don't have an account? Register now (free) for customized features, flight alerts, and more!